sensor_id;sensor_type;location;lat;lon;timestamp;P1;durP1;ratioP1;P2;durP2;ratioP2
13147;SDS011;6639;50.956;4.242;2023-07-13T00:01:04;3.28;;;1.58;;
13147;SDS011;6639;50.956;4.242;2023-07-13T00:03:32;4.30;;;2.10;;
13147;SDS011;6639;50.956;4.242;2023-07-13T00:06:00;2.40;;;1.40;;
13147;SDS011;6639;50.956;4.242;2023-07-13T00:08:29;5.50;;;1.45;;
13147;SDS011;6639;50.956;4.242;2023-07-13T00:10:58;3.65;;;1.50;;
13147;SDS011;6639;50.956;4.242;2023-07-13T00:13:25;6.07;;;1.95;;
13147;SDS011;6639;50.956;4.242;2023-07-13T00:15:51;5.00;;;2.00;;
13147;SDS011;6639;50.956;4.242;2023-07-13T00:18:20;1.73;;;1.50;;
13147;SDS011;6639;50.956;4.242;2023-07-13T00:20:48;4.55;;;1.90;;
13147;SDS011;6639;50.956;4.242;2023-07-13T00:23:15;4.68;;;1.42;;
13147;SDS011;6639;50.956;4.242;2023-07-13T00:25:43;3.90;;;1.60;;
13147;SDS011;6639;50.956;4.242;2023-07-13T00:28:09;4.43;;;1.48;;
13147;SDS011;6639;50.956;4.242;2023-07-13T00:30:36;3.38;;;1.77;;
13147;SDS011;6639;50.956;4.242;2023-07-13T00:33:03;4.82;;;1.80;;
13147;SDS011;6639;50.956;4.242;2023-07-13T00:35:30;4.60;;;2.05;;
13147;SDS011;6639;50.956;4.242;2023-07-13T00:37:59;4.45;;;1.42;;
13147;SDS011;6639;50.956;4.242;2023-07-13T00:40:26;3.42;;;1.60;;
13147;SDS011;6639;50.956;4.242;2023-07-13T00:42:53;3.80;;;1.52;;
13147;SDS011;6639;50.956;4.242;2023-07-13T00:48:29;5.25;;;1.95;;
13147;SDS011;6639;50.956;4.242;2023-07-13T00:51:00;7.22;;;2.08;;
13147;SDS011;6639;50.956;4.242;2023-07-13T00:53:29;2.97;;;1.58;;
13147;SDS011;6639;50.956;4.242;2023-07-13T00:55:58;5.00;;;1.80;;
13147;SDS011;6639;50.956;4.242;2023-07-13T00:58:27;3.15;;;1.50;;
13147;SDS011;6639;50.956;4.242;2023-07-13T01:00:55;3.25;;;1.67;;
13147;SDS011;6639;50.956;4.242;2023-07-13T01:03:22;3.28;;;1.80;;
13147;SDS011;6639;50.956;4.242;2023-07-13T01:05:49;3.05;;;1.70;;
13147;SDS011;6639;50.956;4.242;2023-07-13T01:08:16;4.40;;;1.80;;
13147;SDS011;6639;50.956;4.242;2023-07-13T01:10:52;4.82;;;1.80;;
13147;SDS011;6639;50.956;4.242;2023-07-13T01:13:20;7.35;;;2.28;;
13147;SDS011;6639;50.956;4.242;2023-07-13T01:15:47;4.88;;;1.83;;
13147;SDS011;6639;50.956;4.242;2023-07-13T01:18:17;4.20;;;1.88;;
13147;SDS011;6639;50.956;4.242;2023-07-13T01:20:49;4.55;;;1.70;;
13147;SDS011;6639;50.956;4.242;2023-07-13T01:23:17;4.78;;;2.13;;
13147;SDS011;6639;50.956;4.242;2023-07-13T01:25:45;3.95;;;1.73;;
13147;SDS011;6639;50.956;4.242;2023-07-13T01:28:12;3.97;;;1.65;;
13147;SDS011;6639;50.956;4.242;2023-07-13T01:30:39;5.65;;;1.77;;
13147;SDS011;6639;50.956;4.242;2023-07-13T01:33:10;5.13;;;1.90;;
13147;SDS011;6639;50.956;4.242;2023-07-13T01:35:38;5.78;;;1.50;;
13147;SDS011;6639;50.956;4.242;2023-07-13T01:38:06;8.55;;;2.33;;
13147;SDS011;6639;50.956;4.242;2023-07-13T01:40:34;6.53;;;1.98;;
13147;SDS011;6639;50.956;4.242;2023-07-13T01:43:03;4.68;;;1.63;;
13147;SDS011;6639;50.956;4.242;2023-07-13T01:45:30;3.78;;;1.90;;
13147;SDS011;6639;50.956;4.242;2023-07-13T01:47:57;4.03;;;1.73;;
13147;SDS011;6639;50.956;4.242;2023-07-13T01:50:24;5.75;;;2.30;;
13147;SDS011;6639;50.956;4.242;2023-07-13T01:52:51;4.53;;;1.95;;
13147;SDS011;6639;50.956;4.242;2023-07-13T01:55:20;4.25;;;2.15;;
13147;SDS011;6639;50.956;4.242;2023-07-13T01:57:48;4.45;;;1.90;;
13147;SDS011;6639;50.956;4.242;2023-07-13T02:00:15;5.20;;;1.70;;
13147;SDS011;6639;50.956;4.242;2023-07-13T02:02:43;4.32;;;1.80;;
13147;SDS011;6639;50.956;4.242;2023-07-13T02:05:10;3.17;;;1.75;;
13147;SDS011;6639;50.956;4.242;2023-07-13T02:07:37;5.03;;;2.42;;
13147;SDS011;6639;50.956;4.242;2023-07-13T02:10:05;5.10;;;2.22;;
13147;SDS011;6639;50.956;4.242;2023-07-13T02:12:34;4.50;;;2.13;;
13147;SDS011;6639;50.956;4.242;2023-07-13T02:15:02;6.68;;;2.63;;
13147;SDS011;6639;50.956;4.242;2023-07-13T02:17:29;4.80;;;1.80;;
13147;SDS011;6639;50.956;4.242;2023-07-13T02:19:57;4.57;;;1.95;;
13147;SDS011;6639;50.956;4.242;2023-07-13T02:22:24;4.88;;;2.08;;
13147;SDS011;6639;50.956;4.242;2023-07-13T02:24:51;4.75;;;2.00;;
13147;SDS011;6639;50.956;4.242;2023-07-13T02:27:17;5.63;;;2.65;;
13147;SDS011;6639;50.956;4.242;2023-07-13T02:29:46;4.60;;;2.10;;
13147;SDS011;6639;50.956;4.242;2023-07-13T02:32:13;3.53;;;1.92;;
13147;SDS011;6639;50.956;4.242;2023-07-13T02:34:40;3.78;;;1.95;;
13147;SDS011;6639;50.956;4.242;2023-07-13T02:37:07;4.65;;;1.98;;
13147;SDS011;6639;50.956;4.242;2023-07-13T02:39:34;4.38;;;2.38;;
13147;SDS011;6639;50.956;4.242;2023-07-13T02:42:01;6.30;;;2.45;;
13147;SDS011;6639;50.956;4.242;2023-07-13T02:44:28;5.43;;;2.47;;
13147;SDS011;6639;50.956;4.242;2023-07-13T02:46:57;4.20;;;2.33;;
13147;SDS011;6639;50.956;4.242;2023-07-13T02:49:24;3.67;;;2.40;;
13147;SDS011;6639;50.956;4.242;2023-07-13T02:51:51;4.88;;;2.20;;
13147;SDS011;6639;50.956;4.242;2023-07-13T02:54:18;7.38;;;2.25;;
13147;SDS011;6639;50.956;4.242;2023-07-13T02:56:45;3.67;;;1.90;;
13147;SDS011;6639;50.956;4.242;2023-07-13T02:59:12;8.98;;;2.47;;
13147;SDS011;6639;50.956;4.242;2023-07-13T03:01:39;3.67;;;2.30;;
13147;SDS011;6639;50.956;4.242;2023-07-13T03:04:07;4.95;;;2.50;;
13147;SDS011;6639;50.956;4.242;2023-07-13T03:06:34;5.43;;;2.00;;
13147;SDS011;6639;50.956;4.242;2023-07-13T03:09:01;7.93;;;2.65;;
13147;SDS011;6639;50.956;4.242;2023-07-13T03:11:28;6.57;;;2.50;;
13147;SDS011;6639;50.956;4.242;2023-07-13T03:13:56;3.60;;;2.22;;
13147;SDS011;6639;50.956;4.242;2023-07-13T03:16:23;4.82;;;2.10;;
13147;SDS011;6639;50.956;4.242;2023-07-13T03:18:50;3.20;;;2.00;;
13147;SDS011;6639;50.956;4.242;2023-07-13T03:21:18;3.85;;;2.13;;
13147;SDS011;6639;50.956;4.242;2023-07-13T03:23:45;5.60;;;2.47;;
13147;SDS011;6639;50.956;4.242;2023-07-13T03:26:13;4.78;;;2.38;;
13147;SDS011;6639;50.956;4.242;2023-07-13T03:28:41;4.50;;;2.17;;
13147;SDS011;6639;50.956;4.242;2023-07-13T03:31:09;8.52;;;2.35;;
13147;SDS011;6639;50.956;4.242;2023-07-13T03:33:38;5.57;;;2.28;;
13147;SDS011;6639;50.956;4.242;2023-07-13T03:36:05;6.32;;;2.70;;
13147;SDS011;6639;50.956;4.242;2023-07-13T03:38:35;7.28;;;2.33;;
13147;SDS011;6639;50.956;4.242;2023-07-13T03:41:02;6.72;;;2.10;;
13147;SDS011;6639;50.956;4.242;2023-07-13T03:43:29;4.00;;;2.35;;
13147;SDS011;6639;50.956;4.242;2023-07-13T03:45:56;5.50;;;2.20;;
13147;SDS011;6639;50.956;4.242;2023-07-13T03:48:23;8.35;;;2.60;;
13147;SDS011;6639;50.956;4.242;2023-07-13T03:50:50;4.97;;;2.30;;
13147;SDS011;6639;50.956;4.242;2023-07-13T03:53:17;7.53;;;2.22;;
13147;SDS011;6639;50.956;4.242;2023-07-13T03:55:45;8.00;;;2.72;;
13147;SDS011;6639;50.956;4.242;2023-07-13T03:58:31;5.93;;;2.75;;
13147;SDS011;6639;50.956;4.242;2023-07-13T04:00:59;6.90;;;2.38;;
13147;SDS011;6639;50.956;4.242;2023-07-13T04:03:28;9.02;;;2.92;;
13147;SDS011;6639;50.956;4.242;2023-07-13T04:05:57;5.00;;;2.13;;
13147;SDS011;6639;50.956;4.242;2023-07-13T04:08:25;7.18;;;2.80;;
13147;SDS011;6639;50.956;4.242;2023-07-13T04:10:55;5.47;;;2.67;;
13147;SDS011;6639;50.956;4.242;2023-07-13T04:13:22;7.20;;;2.72;;
13147;SDS011;6639;50.956;4.242;2023-07-13T04:15:50;6.70;;;2.95;;
13147;SDS011;6639;50.956;4.242;2023-07-13T04:18:17;5.03;;;2.35;;
13147;SDS011;6639;50.956;4.242;2023-07-13T04:20:45;6.30;;;2.70;;
13147;SDS011;6639;50.956;4.242;2023-07-13T04:23:12;5.45;;;2.40;;
13147;SDS011;6639;50.956;4.242;2023-07-13T04:25:39;8.35;;;2.83;;
13147;SDS011;6639;50.956;4.242;2023-07-13T04:28:10;4.68;;;1.92;;
13147;SDS011;6639;50.956;4.242;2023-07-13T04:30:37;7.32;;;2.53;;
13147;SDS011;6639;50.956;4.242;2023-07-13T04:33:04;6.65;;;2.92;;
13147;SDS011;6639;50.956;4.242;2023-07-13T04:35:31;5.97;;;2.72;;
13147;SDS011;6639;50.956;4.242;2023-07-13T04:37:58;7.72;;;3.08;;
13147;SDS011;6639;50.956;4.242;2023-07-13T04:40:26;10.88;;;3.30;;
13147;SDS011;6639;50.956;4.242;2023-07-13T04:42:54;8.10;;;2.63;;
13147;SDS011;6639;50.956;4.242;2023-07-13T04:45:23;8.30;;;2.92;;
13147;SDS011;6639;50.956;4.242;2023-07-13T04:47:51;5.13;;;2.63;;
13147;SDS011;6639;50.956;4.242;2023-07-13T04:50:18;4.72;;;2.75;;
13147;SDS011;6639;50.956;4.242;2023-07-13T04:52:48;8.38;;;2.90;;
13147;SDS011;6639;50.956;4.242;2023-07-13T04:55:15;7.72;;;2.83;;
13147;SDS011;6639;50.956;4.242;2023-07-13T04:57:43;5.70;;;2.53;;
13147;SDS011;6639;50.956;4.242;2023-07-13T05:00:10;8.52;;;2.80;;
13147;SDS011;6639;50.956;4.242;2023-07-13T05:02:39;4.97;;;2.60;;
13147;SDS011;6639;50.956;4.242;2023-07-13T05:05:07;8.25;;;3.05;;
13147;SDS011;6639;50.956;4.242;2023-07-13T05:07:34;8.65;;;3.22;;
13147;SDS011;6639;50.956;4.242;2023-07-13T05:10:01;8.13;;;2.70;;
13147;SDS011;6639;50.956;4.242;2023-07-13T05:12:29;7.32;;;3.05;;
13147;SDS011;6639;50.956;4.242;2023-07-13T05:14:56;9.40;;;4.00;;
13147;SDS011;6639;50.956;4.242;2023-07-13T05:17:23;5.47;;;2.50;;
13147;SDS011;6639;50.956;4.242;2023-07-13T05:19:51;5.38;;;2.47;;
13147;SDS011;6639;50.956;4.242;2023-07-13T05:22:18;6.50;;;2.70;;
13147;SDS011;6639;50.956;4.242;2023-07-13T05:24:45;9.20;;;3.00;;
13147;SDS011;6639;50.956;4.242;2023-07-13T05:27:12;7.28;;;2.97;;
13147;SDS011;6639;50.956;4.242;2023-07-13T05:29:39;9.25;;;3.20;;
13147;SDS011;6639;50.956;4.242;2023-07-13T05:32:06;7.32;;;3.00;;
13147;SDS011;6639;50.956;4.242;2023-07-13T05:34:33;5.20;;;2.42;;
13147;SDS011;6639;50.956;4.242;2023-07-13T05:37:01;7.78;;;2.92;;
13147;SDS011;6639;50.956;4.242;2023-07-13T05:39:28;5.85;;;3.10;;
13147;SDS011;6639;50.956;4.242;2023-07-13T05:41:55;5.88;;;2.70;;
13147;SDS011;6639;50.956;4.242;2023-07-13T05:44:22;9.77;;;3.47;;
13147;SDS011;6639;50.956;4.242;2023-07-13T05:46:49;6.63;;;3.15;;
13147;SDS011;6639;50.956;4.242;2023-07-13T05:49:16;6.68;;;2.63;;
13147;SDS011;6639;50.956;4.242;2023-07-13T05:51:43;7.30;;;3.28;;
13147;SDS011;6639;50.956;4.242;2023-07-13T05:54:11;10.93;;;3.45;;
13147;SDS011;6639;50.956;4.242;2023-07-13T05:56:38;8.85;;;2.95;;
13147;SDS011;6639;50.956;4.242;2023-07-13T05:59:05;6.53;;;3.38;;
13147;SDS011;6639;50.956;4.242;2023-07-13T06:01:32;6.70;;;3.03;;
13147;SDS011;6639;50.956;4.242;2023-07-13T06:03:59;6.82;;;2.60;;
13147;SDS011;6639;50.956;4.242;2023-07-13T06:06:26;5.40;;;2.50;;
13147;SDS011;6639;50.956;4.242;2023-07-13T06:08:53;6.22;;;2.90;;
13147;SDS011;6639;50.956;4.242;2023-07-13T06:11:22;9.07;;;3.80;;
13147;SDS011;6639;50.956;4.242;2023-07-13T06:13:51;5.95;;;3.00;;
13147;SDS011;6639;50.956;4.242;2023-07-13T06:16:19;7.05;;;2.90;;
13147;SDS011;6639;50.956;4.242;2023-07-13T06:18:46;6.95;;;2.95;;
13147;SDS011;6639;50.956;4.242;2023-07-13T06:21:14;5.32;;;2.55;;
13147;SDS011;6639;50.956;4.242;2023-07-13T06:23:43;5.47;;;2.65;;
13147;SDS011;6639;50.956;4.242;2023-07-13T06:26:10;6.22;;;2.90;;
13147;SDS011;6639;50.956;4.242;2023-07-13T06:28:38;6.72;;;3.05;;
13147;SDS011;6639;50.956;4.242;2023-07-13T06:31:06;4.90;;;2.65;;
13147;SDS011;6639;50.956;4.242;2023-07-13T06:33:34;8.55;;;3.33;;
13147;SDS011;6639;50.956;4.242;2023-07-13T06:36:02;6.15;;;2.58;;
13147;SDS011;6639;50.956;4.242;2023-07-13T06:38:30;7.15;;;2.80;;
13147;SDS011;6639;50.956;4.242;2023-07-13T06:40:57;10.07;;;3.53;;
13147;SDS011;6639;50.956;4.242;2023-07-13T06:43:24;11.13;;;3.17;;
13147;SDS011;6639;50.956;4.242;2023-07-13T06:45:54;8.70;;;3.30;;
13147;SDS011;6639;50.956;4.242;2023-07-13T06:48:22;8.73;;;3.25;;
13147;SDS011;6639;50.956;4.242;2023-07-13T06:50:49;6.70;;;3.00;;
13147;SDS011;6639;50.956;4.242;2023-07-13T06:53:18;5.93;;;2.45;;
13147;SDS011;6639;50.956;4.242;2023-07-13T06:55:46;7.60;;;3.47;;
13147;SDS011;6639;50.956;4.242;2023-07-13T06:58:14;10.27;;;3.00;;
13147;SDS011;6639;50.956;4.242;2023-07-13T07:00:43;10.70;;;3.00;;
13147;SDS011;6639;50.956;4.242;2023-07-13T07:03:11;7.28;;;3.85;;
13147;SDS011;6639;50.956;4.242;2023-07-13T07:05:38;6.95;;;3.20;;
13147;SDS011;6639;50.956;4.242;2023-07-13T07:08:05;6.55;;;2.92;;
13147;SDS011;6639;50.956;4.242;2023-07-13T07:10:32;7.55;;;2.60;;
13147;SDS011;6639;50.956;4.242;2023-07-13T07:13:00;5.88;;;2.80;;
13147;SDS011;6639;50.956;4.242;2023-07-13T07:15:27;8.63;;;2.88;;
13147;SDS011;6639;50.956;4.242;2023-07-13T07:17:55;7.68;;;2.95;;
13147;SDS011;6639;50.956;4.242;2023-07-13T07:20:23;8.60;;;2.97;;
13147;SDS011;6639;50.956;4.242;2023-07-13T07:22:50;8.20;;;3.35;;
13147;SDS011;6639;50.956;4.242;2023-07-13T07:25:17;7.38;;;3.00;;
13147;SDS011;6639;50.956;4.242;2023-07-13T07:27:45;14.13;;;3.17;;
13147;SDS011;6639;50.956;4.242;2023-07-13T07:30:12;6.03;;;2.67;;
13147;SDS011;6639;50.956;4.242;2023-07-13T07:32:40;7.00;;;3.08;;
13147;SDS011;6639;50.956;4.242;2023-07-13T07:35:07;6.95;;;2.80;;
13147;SDS011;6639;50.956;4.242;2023-07-13T07:37:36;7.88;;;2.38;;
13147;SDS011;6639;50.956;4.242;2023-07-13T07:40:03;3.65;;;2.05;;
13147;SDS011;6639;50.956;4.242;2023-07-13T07:42:30;7.50;;;2.63;;
13147;SDS011;6639;50.956;4.242;2023-07-13T07:44:57;6.75;;;2.63;;
13147;SDS011;6639;50.956;4.242;2023-07-13T07:47:25;8.95;;;2.55;;
13147;SDS011;6639;50.956;4.242;2023-07-13T07:49:52;6.25;;;2.67;;
13147;SDS011;6639;50.956;4.242;2023-07-13T07:52:19;4.82;;;2.42;;
13147;SDS011;6639;50.956;4.242;2023-07-13T07:54:47;8.23;;;2.78;;
13147;SDS011;6639;50.956;4.242;2023-07-13T07:57:14;5.53;;;2.83;;
13147;SDS011;6639;50.956;4.242;2023-07-13T07:59:41;6.05;;;2.22;;
13147;SDS011;6639;50.956;4.242;2023-07-13T08:02:08;5.63;;;2.13;;
13147;SDS011;6639;50.956;4.242;2023-07-13T08:04:37;4.90;;;2.35;;
13147;SDS011;6639;50.956;4.242;2023-07-13T08:07:04;6.63;;;2.42;;
13147;SDS011;6639;50.956;4.242;2023-07-13T08:09:31;6.95;;;2.35;;
13147;SDS011;6639;50.956;4.242;2023-07-13T08:11:59;6.25;;;2.63;;
13147;SDS011;6639;50.956;4.242;2023-07-13T08:14:27;4.93;;;2.40;;
13147;SDS011;6639;50.956;4.242;2023-07-13T08:16:54;5.38;;;2.03;;
13147;SDS011;6639;50.956;4.242;2023-07-13T08:19:21;6.75;;;2.60;;
13147;SDS011;6639;50.956;4.242;2023-07-13T08:21:48;3.30;;;2.35;;
13147;SDS011;6639;50.956;4.242;2023-07-13T08:24:15;6.47;;;2.67;;
13147;SDS011;6639;50.956;4.242;2023-07-13T08:26:43;8.05;;;2.63;;
13147;SDS011;6639;50.956;4.242;2023-07-13T08:29:12;5.63;;;2.38;;
13147;SDS011;6639;50.956;4.242;2023-07-13T08:31:39;5.28;;;2.40;;
13147;SDS011;6639;50.956;4.242;2023-07-13T08:34:06;6.20;;;2.20;;
13147;SDS011;6639;50.956;4.242;2023-07-13T08:36:33;6.45;;;2.50;;
13147;SDS011;6639;50.956;4.242;2023-07-13T08:39:00;8.23;;;2.30;;
13147;SDS011;6639;50.956;4.242;2023-07-13T08:41:27;4.47;;;2.40;;
13147;SDS011;6639;50.956;4.242;2023-07-13T08:43:56;4.35;;;2.30;;
13147;SDS011;6639;50.956;4.242;2023-07-13T08:46:28;3.42;;;1.63;;
13147;SDS011;6639;50.956;4.242;2023-07-13T08:48:59;5.15;;;2.40;;
13147;SDS011;6639;50.956;4.242;2023-07-13T08:51:31;7.10;;;2.58;;
13147;SDS011;6639;50.956;4.242;2023-07-13T08:54:05;7.65;;;2.88;;
13147;SDS011;6639;50.956;4.242;2023-07-13T08:56:43;6.30;;;2.30;;
13147;SDS011;6639;50.956;4.242;2023-07-13T08:59:13;5.13;;;2.10;;
13147;SDS011;6639;50.956;4.242;2023-07-13T09:04:48;6.65;;;2.15;;
13147;SDS011;6639;50.956;4.242;2023-07-13T09:07:19;5.03;;;1.95;;
13147;SDS011;6639;50.956;4.242;2023-07-13T09:09:57;6.15;;;1.95;;
13147;SDS011;6639;50.956;4.242;2023-07-13T09:15:21;4.28;;;2.13;;
13147;SDS011;6639;50.956;4.242;2023-07-13T09:17:55;5.00;;;2.28;;
13147;SDS011;6639;50.956;4.242;2023-07-13T09:20:26;5.15;;;1.92;;
13147;SDS011;6639;50.956;4.242;2023-07-13T09:22:57;4.45;;;1.77;;
13147;SDS011;6639;50.956;4.242;2023-07-13T09:25:29;5.65;;;2.30;;
13147;SDS011;6639;50.956;4.242;2023-07-13T09:27:58;3.92;;;2.30;;
13147;SDS011;6639;50.956;4.242;2023-07-13T09:30:31;4.20;;;2.00;;
13147;SDS011;6639;50.956;4.242;2023-07-13T09:33:04;5.43;;;2.40;;
13147;SDS011;6639;50.956;4.242;2023-07-13T09:35:31;3.20;;;2.28;;
13147;SDS011;6639;50.956;4.242;2023-07-13T09:37:59;8.68;;;2.55;;
13147;SDS011;6639;50.956;4.242;2023-07-13T09:40:39;6.45;;;2.35;;
13147;SDS011;6639;50.956;4.242;2023-07-13T09:43:11;2.80;;;1.80;;
13147;SDS011;6639;50.956;4.242;2023-07-13T09:45:40;5.13;;;1.90;;
13147;SDS011;6639;50.956;4.242;2023-07-13T09:48:10;3.03;;;1.48;;
13147;SDS011;6639;50.956;4.242;2023-07-13T09:50:39;4.78;;;2.38;;
13147;SDS011;6639;50.956;4.242;2023-07-13T09:53:11;3.53;;;1.90;;
13147;SDS011;6639;50.956;4.242;2023-07-13T09:55:39;5.75;;;1.80;;
13147;SDS011;6639;50.956;4.242;2023-07-13T09:58:09;4.85;;;2.03;;
13147;SDS011;6639;50.956;4.242;2023-07-13T10:00:38;5.82;;;2.10;;
13147;SDS011;6639;50.956;4.242;2023-07-13T10:03:17;5.97;;;2.17;;
13147;SDS011;6639;50.956;4.242;2023-07-13T10:05:47;4.10;;;1.85;;
13147;SDS011;6639;50.956;4.242;2023-07-13T10:08:21;6.38;;;2.30;;
13147;SDS011;6639;50.956;4.242;2023-07-13T10:10:52;2.85;;;1.50;;
13147;SDS011;6639;50.956;4.242;2023-07-13T10:13:26;5.45;;;2.03;;
13147;SDS011;6639;50.956;4.242;2023-07-13T10:16:00;3.88;;;1.90;;
13147;SDS011;6639;50.956;4.242;2023-07-13T10:18:38;4.78;;;1.98;;
13147;SDS011;6639;50.956;4.242;2023-07-13T10:21:13;3.22;;;1.67;;
13147;SDS011;6639;50.956;4.242;2023-07-13T10:23:42;4.63;;;1.77;;
13147;SDS011;6639;50.956;4.242;2023-07-13T10:26:13;3.42;;;1.70;;
13147;SDS011;6639;50.956;4.242;2023-07-13T10:28:43;3.38;;;1.80;;
13147;SDS011;6639;50.956;4.242;2023-07-13T10:31:14;3.50;;;1.67;;
13147;SDS011;6639;50.956;4.242;2023-07-13T10:33:44;4.22;;;2.00;;
13147;SDS011;6639;50.956;4.242;2023-07-13T10:36:13;3.70;;;1.30;;
13147;SDS011;6639;50.956;4.242;2023-07-13T10:38:44;2.08;;;1.60;;
13147;SDS011;6639;50.956;4.242;2023-07-13T10:41:14;3.50;;;1.35;;
13147;SDS011;6639;50.956;4.242;2023-07-13T10:43:45;3.15;;;1.52;;
13147;SDS011;6639;50.956;4.242;2023-07-13T10:46:16;5.47;;;1.83;;
13147;SDS011;6639;50.956;4.242;2023-07-13T10:48:48;3.15;;;1.80;;
13147;SDS011;6639;50.956;4.242;2023-07-13T10:51:17;5.88;;;2.35;;
13147;SDS011;6639;50.956;4.242;2023-07-13T10:53:47;4.45;;;2.15;;
13147;SDS011;6639;50.956;4.242;2023-07-13T10:56:35;7.20;;;2.20;;
13147;SDS011;6639;50.956;4.242;2023-07-13T10:59:11;4.43;;;2.00;;
13147;SDS011;6639;50.956;4.242;2023-07-13T11:01:48;3.15;;;2.03;;
13147;SDS011;6639;50.956;4.242;2023-07-13T11:04:19;4.45;;;2.22;;
13147;SDS011;6639;50.956;4.242;2023-07-13T11:06:47;5.60;;;2.10;;
13147;SDS011;6639;50.956;4.242;2023-07-13T11:09:30;4.10;;;1.83;;
13147;SDS011;6639;50.956;4.242;2023-07-13T11:12:06;4.63;;;2.00;;
13147;SDS011;6639;50.956;4.242;2023-07-13T11:14:35;5.68;;;2.10;;
13147;SDS011;6639;50.956;4.242;2023-07-13T11:20:09;4.13;;;1.88;;
13147;SDS011;6639;50.956;4.242;2023-07-13T11:22:46;2.70;;;1.88;;
13147;SDS011;6639;50.956;4.242;2023-07-13T11:25:25;2.38;;;1.67;;
13147;SDS011;6639;50.956;4.242;2023-07-13T11:28:06;1.85;;;1.75;;
13147;SDS011;6639;50.956;4.242;2023-07-13T11:30:43;3.47;;;1.83;;
13147;SDS011;6639;50.956;4.242;2023-07-13T11:33:14;5.15;;;2.00;;
13147;SDS011;6639;50.956;4.242;2023-07-13T11:35:46;2.70;;;2.03;;
13147;SDS011;6639;50.956;4.242;2023-07-13T11:38:30;5.38;;;1.63;;
13147;SDS011;6639;50.956;4.242;2023-07-13T11:41:00;5.55;;;1.90;;
13147;SDS011;6639;50.956;4.242;2023-07-13T11:43:31;3.83;;;1.92;;
13147;SDS011;6639;50.956;4.242;2023-07-13T11:46:11;7.68;;;2.10;;
13147;SDS011;6639;50.956;4.242;2023-07-13T11:48:40;4.88;;;2.03;;
13147;SDS011;6639;50.956;4.242;2023-07-13T11:51:07;6.13;;;1.90;;
13147;SDS011;6639;50.956;4.242;2023-07-13T11:53:45;4.20;;;1.42;;
13147;SDS011;6639;50.956;4.242;2023-07-13T11:56:14;2.50;;;1.48;;
13147;SDS011;6639;50.956;4.242;2023-07-13T11:58:43;3.25;;;1.67;;
13147;SDS011;6639;50.956;4.242;2023-07-13T12:01:15;1.10;;;1.05;;
13147;SDS011;6639;50.956;4.242;2023-07-13T12:03:45;2.25;;;1.40;;
13147;SDS011;6639;50.956;4.242;2023-07-13T12:06:21;3.28;;;1.45;;
13147;SDS011;6639;50.956;4.242;2023-07-13T12:08:55;4.07;;;2.15;;
13147;SDS011;6639;50.956;4.242;2023-07-13T12:11:23;2.28;;;1.80;;
13147;SDS011;6639;50.956;4.242;2023-07-13T12:13:51;3.17;;;1.60;;
13147;SDS011;6639;50.956;4.242;2023-07-13T12:16:21;3.25;;;1.60;;
13147;SDS011;6639;50.956;4.242;2023-07-13T12:18:53;2.88;;;1.73;;
13147;SDS011;6639;50.956;4.242;2023-07-13T12:21:23;2.58;;;1.50;;
13147;SDS011;6639;50.956;4.242;2023-07-13T12:23:55;1.88;;;1.65;;
13147;SDS011;6639;50.956;4.242;2023-07-13T12:26:22;2.65;;;1.63;;
13147;SDS011;6639;50.956;4.242;2023-07-13T12:28:52;2.33;;;2.13;;
13147;SDS011;6639;50.956;4.242;2023-07-13T12:34:08;1.88;;;1.38;;
13147;SDS011;6639;50.956;4.242;2023-07-13T12:36:37;1.63;;;1.50;;
13147;SDS011;6639;50.956;4.242;2023-07-13T12:39:12;3.65;;;1.50;;
13147;SDS011;6639;50.956;4.242;2023-07-13T12:41:41;2.55;;;1.73;;
13147;SDS011;6639;50.956;4.242;2023-07-13T12:44:12;1.70;;;1.60;;
13147;SDS011;6639;50.956;4.242;2023-07-13T12:46:50;2.50;;;1.50;;
13147;SDS011;6639;50.956;4.242;2023-07-13T12:49:22;1.60;;;1.50;;
13147;SDS011;6639;50.956;4.242;2023-07-13T12:51:55;2.45;;;1.40;;
13147;SDS011;6639;50.956;4.242;2023-07-13T12:54:24;2.20;;;1.80;;
13147;SDS011;6639;50.956;4.242;2023-07-13T12:56:52;4.13;;;1.50;;
13147;SDS011;6639;50.956;4.242;2023-07-13T12:59:22;2.13;;;1.35;;
13147;SDS011;6639;50.956;4.242;2023-07-13T13:01:51;2.60;;;1.40;;
13147;SDS011;6639;50.956;4.242;2023-07-13T13:04:20;2.92;;;1.50;;
13147;SDS011;6639;50.956;4.242;2023-07-13T13:06:48;2.55;;;1.50;;
13147;SDS011;6639;50.956;4.242;2023-07-13T13:09:26;2.38;;;1.40;;
13147;SDS011;6639;50.956;4.242;2023-07-13T13:11:53;2.40;;;1.30;;
13147;SDS011;6639;50.956;4.242;2023-07-13T13:14:19;3.10;;;1.30;;
13147;SDS011;6639;50.956;4.242;2023-07-13T13:16:48;1.90;;;1.40;;
13147;SDS011;6639;50.956;4.242;2023-07-13T13:19:18;2.22;;;1.50;;
13147;SDS011;6639;50.956;4.242;2023-07-13T13:21:47;1.73;;;1.50;;
13147;SDS011;6639;50.956;4.242;2023-07-13T13:24:18;2.22;;;1.58;;
13147;SDS011;6639;50.956;4.242;2023-07-13T13:26:46;2.85;;;1.67;;
13147;SDS011;6639;50.956;4.242;2023-07-13T13:29:15;2.85;;;1.35;;
13147;SDS011;6639;50.956;4.242;2023-07-13T13:31:44;1.80;;;1.27;;
13147;SDS011;6639;50.956;4.242;2023-07-13T13:34:13;1.88;;;1.50;;
13147;SDS011;6639;50.956;4.242;2023-07-13T13:36:42;3.17;;;1.60;;
13147;SDS011;6639;50.956;4.242;2023-07-13T13:39:15;4.00;;;1.63;;
13147;SDS011;6639;50.956;4.242;2023-07-13T13:41:46;2.55;;;1.48;;
13147;SDS011;6639;50.956;4.242;2023-07-13T13:44:14;1.45;;;1.08;;
13147;SDS011;6639;50.956;4.242;2023-07-13T13:46:42;3.33;;;1.50;;
13147;SDS011;6639;50.956;4.242;2023-07-13T13:49:13;3.60;;;1.45;;
13147;SDS011;6639;50.956;4.242;2023-07-13T13:51:42;4.43;;;1.63;;
13147;SDS011;6639;50.956;4.242;2023-07-13T13:54:10;2.22;;;1.48;;
13147;SDS011;6639;50.956;4.242;2023-07-13T13:56:39;1.63;;;1.50;;
13147;SDS011;6639;50.956;4.242;2023-07-13T13:59:07;2.00;;;1.50;;
13147;SDS011;6639;50.956;4.242;2023-07-13T14:01:34;2.25;;;1.60;;
13147;SDS011;6639;50.956;4.242;2023-07-13T14:04:02;2.90;;;1.40;;
13147;SDS011;6639;50.956;4.242;2023-07-13T14:06:32;4.20;;;1.58;;
13147;SDS011;6639;50.956;4.242;2023-07-13T14:08:59;2.58;;;1.60;;
13147;SDS011;6639;50.956;4.242;2023-07-13T14:11:27;3.13;;;1.65;;
13147;SDS011;6639;50.956;4.242;2023-07-13T14:13:56;3.17;;;1.67;;
13147;SDS011;6639;50.956;4.242;2023-07-13T14:16:25;2.20;;;1.50;;
13147;SDS011;6639;50.956;4.242;2023-07-13T14:18:54;2.67;;;1.35;;
13147;SDS011;6639;50.956;4.242;2023-07-13T14:21:23;1.92;;;1.40;;
13147;SDS011;6639;50.956;4.242;2023-07-13T14:23:52;3.72;;;1.67;;
13147;SDS011;6639;50.956;4.242;2023-07-13T14:26:19;3.08;;;1.40;;
13147;SDS011;6639;50.956;4.242;2023-07-13T14:28:48;2.00;;;1.50;;
13147;SDS011;6639;50.956;4.242;2023-07-13T14:31:17;4.20;;;1.55;;
13147;SDS011;6639;50.956;4.242;2023-07-13T14:33:44;2.47;;;1.85;;
13147;SDS011;6639;50.956;4.242;2023-07-13T14:36:16;3.25;;;2.17;;
13147;SDS011;6639;50.956;4.242;2023-07-13T14:38:54;2.90;;;1.90;;
13147;SDS011;6639;50.956;4.242;2023-07-13T14:41:22;3.03;;;1.60;;
13147;SDS011;6639;50.956;4.242;2023-07-13T14:43:49;2.10;;;1.60;;
13147;SDS011;6639;50.956;4.242;2023-07-13T14:46:22;2.50;;;1.50;;
13147;SDS011;6639;50.956;4.242;2023-07-13T14:48:54;1.52;;;1.42;;
13147;SDS011;6639;50.956;4.242;2023-07-13T14:51:27;1.92;;;1.25;;
13147;SDS011;6639;50.956;4.242;2023-07-13T14:53:55;1.35;;;1.25;;
13147;SDS011;6639;50.956;4.242;2023-07-13T14:56:22;1.40;;;1.30;;
13147;SDS011;6639;50.956;4.242;2023-07-13T14:58:51;2.42;;;1.50;;
13147;SDS011;6639;50.956;4.242;2023-07-13T15:01:18;2.78;;;1.42;;
13147;SDS011;6639;50.956;4.242;2023-07-13T15:03:47;1.95;;;1.65;;
13147;SDS011;6639;50.956;4.242;2023-07-13T15:06:16;2.00;;;1.52;;
13147;SDS011;6639;50.956;4.242;2023-07-13T15:08:44;2.45;;;1.38;;
13147;SDS011;6639;50.956;4.242;2023-07-13T15:11:13;1.30;;;1.20;;
13147;SDS011;6639;50.956;4.242;2023-07-13T15:13:40;3.08;;;1.73;;
13147;SDS011;6639;50.956;4.242;2023-07-13T15:16:12;1.50;;;1.33;;
13147;SDS011;6639;50.956;4.242;2023-07-13T15:18:42;2.22;;;1.33;;
13147;SDS011;6639;50.956;4.242;2023-07-13T15:21:10;3.20;;;1.58;;
13147;SDS011;6639;50.956;4.242;2023-07-13T15:23:40;2.00;;;1.50;;
13147;SDS011;6639;50.956;4.242;2023-07-13T15:26:08;2.55;;;1.58;;